首页
METAR-TAF:

METAR-TAF

机场 :

Greenbrier Valley Airport

Lewisburg, 西維吉尼亞州, 美国

纬度: 37-52N, 经度: 080-24W, 海拔: 702米

当前天气观测

该预报发布于20分钟前的16:15 UTC
风速7节,风向西转西北,在西北转西北之间变化
温度 4°C
湿度 56%
气压 1023 hPa
能見度: 16.1公里
天空无云

METAR: KLWB 211615Z AUTO 29007KT 270V330 10SM CLR 04/M04 A3021 RMK AO2 T00381045

时间: 11:35 (16:35 UTC)

预报

该预报发布于5小时和15分钟前的11:20 UTC
预报有效从21日的 12点(UTC)到 22日的 12点(UTC)
风速6节,风向西
能見度: 10公里
多云层高于2500英尺
从 21日的 1500点(UTC)
风速7节,风向西
能見度: 10公里
散云层高于7000英尺
从 22日的 0700点(UTC)
风速4节,风向多变
能見度: 10公里
散云层高于3000英尺
从 22日的 0800点(UTC)
风速4节,风向多变
能見度: 10公里
多云层高于2000英尺

TAF: KLWB 211120Z 2112/2212 28006KT P6SM BKN025 FM211500 28007KT P6SM SCT070 FM220700 VRB04KT P6SM SCT030 FM220800 VRB04KT P6SM BKN020

超过4000个机场的气象观测和天气预报(METAR&TAF报告)。

可查询的气象台以黄色和红色小点在地图上表示。

将鼠标移到小点上方,可查看气象台名称。

然后点击查看天气观测和预报。

如需切换地图:点击带黑十字的绿色按钮放大地图;点击带横线的绿色按钮缩小地图;或者点击绿色箭头查看邻近地区的地图。


METAR-TAF: